DAH030 LIMC-EHAM
Flight info
| Callsign | DAH030 |
|---|---|
| Flight time | N/A |
| Altitude | 36000 |
| Route | AOSTA DCT ORSUD DCT MOLUS DCT GILIR DCT PENDU DCT IXILU DCT GIVOR DCT SORAL DCT IBERA DCT RITAX M624 BUB Y28 HELEN |
| Aircraft | A339/H-SADE1E2E3GHIJ3J5M1P2RWXY/LB2D1 |
Departure
| Time | 2026-02-19 14:50 |
|---|---|
| Airport | Milan Malpensa International Airport (LIMC) |
Arrival
| Time | N/A |
|---|---|
| Airport | Amsterdam Airport Schiphol (EHAM) |
| Time | Latitude | Longitude | Altitude | Speed | Heading |
|---|---|---|---|---|---|
| 2026-02-19 14:40 | 45.62239 | 8.71848 | 744 ft | 0 kts | 168° |
| 2026-02-19 14:46 | 45.62233 | 8.71850 | 742 ft | 4 kts | 168° |
| 2026-02-19 14:46 | 45.62184 | 8.71885 | 740 ft | 13 kts | 136° |
| 2026-02-19 14:46 | 45.62152 | 8.72054 | 741 ft | 23 kts | 96° |
| 2026-02-19 14:47 | 45.62041 | 8.72199 | 742 ft | 25 kts | 167° |
| 2026-02-19 14:47 | 45.61850 | 8.72292 | 741 ft | 33 kts | 140° |
| 2026-02-19 14:47 | 45.61616 | 8.72407 | 742 ft | 39 kts | 165° |
| 2026-02-19 14:47 | 45.61332 | 8.72509 | 743 ft | 45 kts | 166° |
| 2026-02-19 14:48 | 45.61137 | 8.72573 | 744 ft | 20 kts | 169° |
| 2026-02-19 14:48 | 45.61136 | 8.72680 | 741 ft | 11 kts | 353° |
| 2026-02-19 14:48 | 45.61158 | 8.72696 | 742 ft | 7 kts | 39° |
| 2026-02-19 14:49 | 45.61240 | 8.72775 | 741 ft | 17 kts | 11° |
| 2026-02-19 14:49 | 45.61576 | 8.72711 | 743 ft | 84 kts | 347° |
| 2026-02-19 14:49 | 45.62374 | 8.72467 | 743 ft | 148 kts | 348° |
| 2026-02-19 14:49 | 45.63518 | 8.72198 | 1096 ft | 169 kts | 350° |
| 2026-02-19 14:50 | 45.64741 | 8.71879 | 1633 ft | 192 kts | 340° |
| 2026-02-19 14:50 | 45.65675 | 8.70775 | 2571 ft | 176 kts | 285° |
| 2026-02-19 14:50 | 45.65411 | 8.69063 | 3130 ft | 185 kts | 246° |
| 2026-02-19 14:50 | 45.64997 | 8.67233 | 3442 ft | 205 kts | 258° |
| 2026-02-19 14:51 | 45.64730 | 8.65126 | 3861 ft | 227 kts | 262° |
| 2026-02-19 14:51 | 45.64487 | 8.62796 | 4557 ft | 242 kts | 263° |
| 2026-02-19 14:51 | 45.64247 | 8.60351 | 5217 ft | 255 kts | 263° |
| 2026-02-19 14:51 | 45.64019 | 8.57797 | 5933 ft | 264 kts | 264° |
| 2026-02-19 14:52 | 45.63808 | 8.55156 | 6793 ft | 267 kts | 265° |
| 2026-02-19 14:52 | 45.63425 | 8.49819 | 8510 ft | 273 kts | 266° |
| 2026-02-19 14:52 | 45.63242 | 8.47103 | 9373 ft | 276 kts | 266° |
| 2026-02-19 14:53 | 45.63107 | 8.44388 | 10172 ft | 277 kts | 272° |
| 2026-02-19 14:53 | 45.63239 | 8.41551 | 10665 ft | 292 kts | 278° |
| 2026-02-19 14:53 | 45.63525 | 8.38611 | 11052 ft | 309 kts | 281° |
| 2026-02-19 14:53 | 45.63901 | 8.35510 | 11501 ft | 324 kts | 282° |
| 2026-02-19 14:54 | 45.64343 | 8.32270 | 11976 ft | 337 kts | 283° |
| 2026-02-19 14:54 | 45.64831 | 8.28918 | 12487 ft | 348 kts | 284° |
| 2026-02-19 14:54 | 45.65345 | 8.25523 | 13084 ft | 355 kts | 284° |
| 2026-02-19 14:54 | 45.65884 | 8.22047 | 13837 ft | 357 kts | 285° |
| 2026-02-19 14:55 | 45.66431 | 8.18591 | 14453 ft | 362 kts | 285° |
| 2026-02-19 14:55 | 45.66998 | 8.15034 | 15070 ft | 367 kts | 284° |
| 2026-02-19 14:55 | 45.67573 | 8.11467 | 15673 ft | 372 kts | 285° |
| 2026-02-19 14:55 | 45.68159 | 8.07807 | 16340 ft | 377 kts | 285° |
| 2026-02-19 14:56 | 45.68738 | 8.04161 | 16963 ft | 382 kts | 284° |
| 2026-02-19 14:56 | 45.69943 | 7.96606 | 18157 ft | 392 kts | 284° |
| 2026-02-19 14:56 | 45.70548 | 7.92809 | 18715 ft | 395 kts | 284° |
| 2026-02-19 14:57 | 45.71160 | 7.88955 | 19324 ft | 399 kts | 284° |
| 2026-02-19 14:57 | 45.71772 | 7.85092 | 19926 ft | 401 kts | 284° |
| 2026-02-19 14:57 | 45.72392 | 7.81169 | 20534 ft | 404 kts | 284° |
| 2026-02-19 14:57 | 45.73014 | 7.77214 | 21146 ft | 407 kts | 284° |
| 2026-02-19 14:58 | 45.73629 | 7.73291 | 21725 ft | 411 kts | 284° |
| 2026-02-19 14:58 | 45.74257 | 7.69282 | 22290 ft | 414 kts | 284° |
| 2026-02-19 14:58 | 45.74889 | 7.65234 | 22877 ft | 417 kts | 284° |
| 2026-02-19 14:58 | 45.75525 | 7.61157 | 23392 ft | 420 kts | 284° |
| 2026-02-19 14:59 | 45.76165 | 7.57048 | 23873 ft | 422 kts | 284° |
| 2026-02-19 14:59 | 45.76803 | 7.52955 | 24325 ft | 425 kts | 284° |
| 2026-02-19 14:59 | 45.77446 | 7.48825 | 24847 ft | 427 kts | 284° |
| 2026-02-19 14:59 | 45.78096 | 7.44645 | 25207 ft | 431 kts | 284° |
| 2026-02-19 15:00 | 45.78744 | 7.40455 | 25672 ft | 433 kts | 284° |
| 2026-02-19 15:00 | 45.81659 | 7.32981 | 26572 ft | 437 kts | 315° |
| 2026-02-19 15:00 | 45.83989 | 7.30157 | 26982 ft | 441 kts | 321° |
| 2026-02-19 15:01 | 45.86443 | 7.27501 | 27438 ft | 444 kts | 323° |
| 2026-02-19 15:01 | 45.88971 | 7.24903 | 27810 ft | 448 kts | 323° |
| 2026-02-19 15:01 | 45.91531 | 7.22352 | 28227 ft | 451 kts | 324° |
| 2026-02-19 15:01 | 45.94107 | 7.19805 | 28647 ft | 454 kts | 324° |
| 2026-02-19 15:02 | 45.96723 | 7.17185 | 28943 ft | 458 kts | 324° |
| 2026-02-19 15:02 | 45.99319 | 7.14563 | 29536 ft | 457 kts | 324° |
| 2026-02-19 15:02 | 46.01928 | 7.11909 | 30038 ft | 458 kts | 324° |
| 2026-02-19 15:02 | 46.04533 | 7.09256 | 30529 ft | 456 kts | 323° |
| 2026-02-19 15:03 | 46.07098 | 7.06640 | 30940 ft | 457 kts | 323° |
| 2026-02-19 15:03 | 46.09711 | 7.03967 | 31349 ft | 458 kts | 323° |
| 2026-02-19 15:03 | 46.12300 | 7.01312 | 31756 ft | 459 kts | 323° |
| 2026-02-19 15:03 | 46.14890 | 6.98651 | 32186 ft | 459 kts | 323° |
| 2026-02-19 15:04 | 46.17487 | 6.95976 | 32629 ft | 459 kts | 323° |
| 2026-02-19 15:04 | 46.22669 | 6.90622 | 33540 ft | 458 kts | 322° |
| 2026-02-19 15:04 | 46.25277 | 6.87922 | 33935 ft | 458 kts | 322° |
| 2026-02-19 15:05 | 46.27841 | 6.85260 | 34335 ft | 457 kts | 322° |
| 2026-02-19 15:05 | 46.30411 | 6.82587 | 34716 ft | 449 kts | 322° |
| 2026-02-19 15:05 | 46.32958 | 6.79937 | 34910 ft | 445 kts | 322° |
| 2026-02-19 15:05 | 46.35458 | 6.77328 | 34992 ft | 451 kts | 322° |
| 2026-02-19 15:06 | 46.40604 | 6.71932 | 35045 ft | 457 kts | 322° |
| 2026-02-19 15:06 | 46.46041 | 6.67197 | 35049 ft | 457 kts | 330° |
| 2026-02-19 15:07 | 46.51685 | 6.63010 | 35053 ft | 457 kts | 331° |
| 2026-02-19 15:07 | 46.57387 | 6.58915 | 35046 ft | 458 kts | 332° |
| 2026-02-19 15:08 | 46.65966 | 6.52820 | 35045 ft | 457 kts | 332° |
| 2026-02-19 15:09 | 46.71670 | 6.48772 | 35041 ft | 456 kts | 332° |
| 2026-02-19 15:09 | 46.77367 | 6.44719 | 35039 ft | 456 kts | 332° |
| 2026-02-19 15:10 | 46.83074 | 6.40648 | 35034 ft | 455 kts | 332° |
| 2026-02-19 15:10 | 46.88750 | 6.36585 | 35042 ft | 456 kts | 332° |
| 2026-02-19 15:11 | 46.94439 | 6.32501 | 35034 ft | 456 kts | 332° |
| 2026-02-19 15:11 | 47.00162 | 6.28384 | 35031 ft | 457 kts | 332° |
| 2026-02-19 15:12 | 47.05841 | 6.24292 | 35025 ft | 456 kts | 332° |
| 2026-02-19 15:12 | 47.14401 | 6.18135 | 35020 ft | 456 kts | 332° |
| 2026-02-19 15:13 | 47.20089 | 6.14031 | 35019 ft | 456 kts | 332° |
| 2026-02-19 15:13 | 47.25791 | 6.09901 | 35013 ft | 456 kts | 332° |
| 2026-02-19 15:14 | 47.31473 | 6.05779 | 35011 ft | 455 kts | 333° |
| 2026-02-19 15:14 | 47.34528 | 6.04353 | 35020 ft | 461 kts | 348° |
| 2026-02-19 15:14 | 47.37691 | 6.03905 | 35016 ft | 464 kts | 354° |
| 2026-02-19 15:15 | 47.44150 | 6.03641 | 35003 ft | 465 kts | 357° |
| 2026-02-19 15:15 | 47.50619 | 6.03663 | 35006 ft | 464 kts | 358° |
| 2026-02-19 15:16 | 47.60312 | 6.03857 | 35004 ft | 466 kts | 358° |
| 2026-02-19 15:17 | 47.66831 | 6.04004 | 34991 ft | 466 kts | 358° |
| 2026-02-19 15:17 | 47.73287 | 6.04599 | 34996 ft | 468 kts | 7° |
| 2026-02-19 15:18 | 47.79685 | 6.06580 | 34996 ft | 471 kts | 10° |
| 2026-02-19 15:18 | 47.86060 | 6.08834 | 34993 ft | 472 kts | 11° |
| 2026-02-19 15:19 | 47.92427 | 6.11179 | 34996 ft | 471 kts | 11° |
| 2026-02-19 15:19 | 47.98773 | 6.13550 | 34991 ft | 471 kts | 11° |
| 2026-02-19 15:20 | 48.05114 | 6.15936 | 34989 ft | 472 kts | 11° |
| 2026-02-19 15:20 | 48.14695 | 6.19556 | 34988 ft | 472 kts | 12° |
| 2026-02-19 15:21 | 48.21050 | 6.21967 | 34988 ft | 472 kts | 12° |
| 2026-02-19 15:21 | 48.27408 | 6.24386 | 34989 ft | 473 kts | 12° |
| 2026-02-19 15:22 | 48.35905 | 6.27629 | 34986 ft | 473 kts | 12° |
| 2026-02-19 15:23 | 48.42273 | 6.30067 | 34989 ft | 472 kts | 12° |
| 2026-02-19 15:23 | 48.48642 | 6.32511 | 34983 ft | 472 kts | 12° |
| 2026-02-19 15:24 | 48.61360 | 6.37411 | 34987 ft | 472 kts | 12° |
| 2026-02-19 15:25 | 48.67795 | 6.39003 | 34990 ft | 469 kts | 4° |
| 2026-02-19 15:25 | 48.74316 | 6.39899 | 34987 ft | 469 kts | 2° |
| 2026-02-19 15:26 | 48.80824 | 6.40635 | 34987 ft | 468 kts | 2° |
| 2026-02-19 15:26 | 48.87317 | 6.41315 | 34987 ft | 467 kts | 2° |
| 2026-02-19 15:27 | 48.93795 | 6.41977 | 34986 ft | 468 kts | 2° |
| 2026-02-19 15:27 | 49.00302 | 6.42636 | 34991 ft | 468 kts | 2° |
| 2026-02-19 15:28 | 49.06783 | 6.43295 | 34991 ft | 468 kts | 2° |
| 2026-02-19 15:28 | 49.13235 | 6.42395 | 34984 ft | 465 kts | 347° |
| 2026-02-19 15:28 | 49.16375 | 6.41353 | 34988 ft | 465 kts | 346° |
| 2026-02-19 15:29 | 49.22681 | 6.39008 | 34985 ft | 465 kts | 345° |
| 2026-02-19 15:30 | 49.32069 | 6.35242 | 34905 ft | 464 kts | 344° |
| 2026-02-19 15:30 | 49.35161 | 6.33974 | 34590 ft | 463 kts | 344° |
| 2026-02-19 15:30 | 49.38284 | 6.32687 | 34081 ft | 463 kts | 344° |
| 2026-02-19 15:31 | 49.44454 | 6.30137 | 34952 ft | 449 kts | 344° |